Time;durP1;ratioP1;P1;durP2;ratioP2;P2;SDS_P1;SDS_P2;PMS_P1;PMS_P2;Temp;Humidity;BMP_temperature;BMP_pressure;BME280_temperature;BME280_humidity;BME280_pressure;Samples;Min_cycle;Max_cycle;Signal;HPM_P1;HPM_P2
2023/06/29 00:00:58;;;;;;;7.77;2.93;;;;;;;15.35;100.00;101165.34;5015729;28;21005;-67
2023/06/29 00:03:25;;;;;;;7.17;2.60;;;;;;;15.42;100.00;101164.06;5015698;28;20830;-68
2023/06/29 00:05:55;;;;;;;6.20;2.47;;;;;;;15.41;100.00;101162.47;5015879;28;20522;-68
2023/06/29 00:08:23;;;;;;;7.80;2.57;;;;;;;15.32;100.00;101165.19;5015384;28;20437;-68
2023/06/29 00:10:50;;;;;;;8.80;3.43;;;;;;;15.21;100.00;101163.88;5015630;28;20470;-68
2023/06/29 00:13:17;;;;;;;7.63;2.90;;;;;;;15.25;100.00;101162.13;5015441;28;20490;-68
2023/06/29 00:15:44;;;;;;;7.63;2.93;;;;;;;15.14;100.00;101164.34;5015625;28;20464;-67
2023/06/29 00:18:12;;;;;;;9.00;3.00;;;;;;;15.29;100.00;101158.44;5015125;28;20496;-68
2023/06/29 00:20:39;;;;;;;8.60;3.30;;;;;;;15.17;100.00;101162.91;5015365;28;20455;-68
2023/06/29 00:23:07;;;;;;;7.10;2.70;;;;;;;15.11;100.00;101162.25;5015393;28;20550;-68
2023/06/29 00:25:34;;;;;;;13.97;2.97;;;;;;;15.18;100.00;101164.50;5014901;28;20478;-68
2023/06/29 00:28:01;;;;;;;8.80;3.27;;;;;;;15.11;100.00;101154.84;5015310;28;20466;-67
2023/06/29 00:30:27;;;;;;;7.23;2.60;;;;;;;15.18;100.00;101164.50;5015291;28;20528;-68
2023/06/29 00:32:54;;;;;;;8.30;3.40;;;;;;;15.11;100.00;101154.84;5014402;28;20447;-68
2023/06/29 00:35:21;;;;;;;7.60;2.97;;;;;;;14.99;100.00;101157.38;5014768;28;20459;-67
2023/06/29 00:37:47;;;;;;;8.23;3.10;;;;;;;14.97;100.00;101147.94;5015290;28;20475;-67
2023/06/29 00:40:15;;;;;;;6.43;2.50;;;;;;;14.88;100.00;101154.16;5014275;28;20963;-67
2023/06/29 00:42:42;;;;;;;8.30;3.17;;;;;;;14.89;100.00;101146.78;5014709;28;20534;-68
2023/06/29 00:45:09;;;;;;;7.73;3.00;;;;;;;14.87;100.00;101149.84;5014502;28;20454;-67
2023/06/29 00:47:36;;;;;;;7.80;3.47;;;;;;;14.84;100.00;101145.00;5014654;28;20436;-67
2023/06/29 00:50:03;;;;;;;6.93;2.90;;;;;;;14.82;100.00;101141.75;5014847;28;20857;-69
2023/06/29 00:52:29;;;;;;;11.23;3.10;;;;;;;14.84;100.00;101144.19;5015053;28;20444;-68
2023/06/29 00:54:57;;;;;;;6.40;2.80;;;;;;;14.79;100.00;101139.69;5014538;28;20570;-67
2023/06/29 00:57:25;;;;;;;7.50;3.03;;;;;;;14.74;100.00;101139.00;5014237;28;20483;-67
2023/06/29 00:59:52;;;;;;;6.80;2.77;;;;;;;14.76;100.00;101139.50;5014651;28;20502;-67
2023/06/29 01:02:19;;;;;;;6.40;2.77;;;;;;;14.73;99.94;101132.75;5014707;28;20498;-67
2023/06/29 01:04:47;;;;;;;10.70;2.90;;;;;;;14.67;99.70;101133.22;5014570;28;20994;-66
2023/06/29 01:07:19;;;;;;;6.67;2.60;;;;;;;14.57;100.00;101134.31;5014391;28;20495;-67
2023/06/29 01:09:47;;;;;;;7.90;2.73;;;;;;;14.66;100.00;101131.63;5014561;28;20946;-66
2023/06/29 01:12:14;;;;;;;7.90;3.10;;;;;;;14.57;100.00;101126.13;5014751;28;20444;-67
2023/06/29 01:14:44;;;;;;;7.13;2.90;;;;;;;14.50;100.00;101126.56;5013916;28;20843;-67
2023/06/29 01:17:14;;;;;;;7.53;3.07;;;;;;;14.51;100.00;101127.38;5014428;28;20552;-67
2023/06/29 01:19:44;;;;;;;9.37;3.27;;;;;;;14.55;100.00;101126.44;5014353;28;20450;-67
2023/06/29 01:22:18;;;;;;;6.63;2.97;;;;;;;14.70;100.00;101122.50;5014390;28;20491;-67
2023/06/29 01:24:46;;;;;;;6.60;2.70;;;;;;;14.70;100.00;101113.47;5014320;28;20800;-68
2023/06/29 01:27:14;;;;;;;6.30;2.57;;;;;;;14.61;100.00;101114.28;5013930;28;21049;-67
2023/06/29 01:29:41;;;;;;;8.73;3.20;;;;;;;14.55;100.00;101110.06;5014172;28;20799;-67
2023/06/29 01:32:10;;;;;;;8.40;3.17;;;;;;;14.43;100.00;101114.47;5013838;28;20444;-67
2023/06/29 01:34:37;;;;;;;6.60;3.10;;;;;;;14.46;100.00;101108.41;5014066;28;20507;-66
2023/06/29 01:37:10;;;;;;;8.70;3.13;;;;;;;14.52;100.00;101108.00;5014092;28;20563;-67
2023/06/29 01:39:43;;;;;;;10.43;2.73;;;;;;;14.58;100.00;101116.81;5013395;28;20462;-67
2023/06/29 01:42:13;;;;;;;6.87;2.63;;;;;;;14.55;100.00;101106.53;5014114;28;20456;-68
2023/06/29 01:44:40;;;;;;;9.20;3.40;;;;;;;14.49;100.00;101113.25;5013914;28;20454;-68
2023/06/29 01:47:08;;;;;;;9.63;3.23;;;;;;;14.51;100.00;101113.75;5013602;28;20511;-67
2023/06/29 01:49:36;;;;;;;6.43;3.03;;;;;;;14.52;100.00;101104.44;5015304;23;20489;-81
2023/06/29 01:52:04;;;;;;;9.73;2.20;;;;;;;14.56;100.00;101108.16;4996228;28;20956;-78
2023/06/29 01:54:30;;;;;;;6.80;3.00;;;;;;;14.57;100.00;101107.84;4995742;28;20568;-79
2023/06/29 01:56:57;;;;;;;7.07;3.20;;;;;;;14.53;100.00;101111.53;4996297;28;20469;-78
2023/06/29 01:59:25;;;;;;;7.87;3.30;;;;;;;14.42;100.00;101110.16;4995179;28;20532;-78
2023/06/29 02:01:52;;;;;;;7.97;3.23;;;;;;;14.36;100.00;101112.22;4994389;28;20999;-78
2023/06/29 02:04:18;;;;;;;8.00;3.73;;;;;;;14.27;100.00;101098.53;4994791;28;20441;-78
2023/06/29 02:06:45;;;;;;;8.03;3.33;;;;;;;14.22;100.00;101106.84;4994872;28;20929;-78
2023/06/29 02:09:12;;;;;;;6.10;2.20;;;;;;;14.15;99.50;101095.59;4995158;28;20535;-78
2023/06/29 02:11:38;;;;;;;8.30;3.13;;;;;;;14.18;99.70;101105.88;4996654;28;20444;-79
2023/06/29 02:14:05;;;;;;;7.10;3.30;;;;;;;14.17;100.00;101101.53;4996390;28;20575;-78
2023/06/29 02:16:33;;;;;;;6.47;3.00;;;;;;;14.07;100.00;101104.50;4997356;28;20507;-81
2023/06/29 02:19:00;;;;;;;6.80;3.23;;;;;;;14.06;100.00;101105.63;4996863;28;20453;-81
2023/06/29 02:21:27;;;;;;;7.60;3.30;;;;;;;14.11;100.00;101105.50;4997261;28;20444;-81
2023/06/29 02:23:53;;;;;;;7.70;2.87;;;;;;;14.16;100.00;101102.63;4996946;28;20936;-81
2023/06/29 02:26:20;;;;;;;8.90;3.40;;;;;;;14.04;100.00;101102.44;4996694;28;20493;-81
2023/06/29 02:28:48;;;;;;;7.37;3.20;;;;;;;14.05;100.00;101104.03;4996858;28;20877;-81
2023/06/29 02:31:15;;;;;;;7.93;3.57;;;;;;;14.03;100.00;101103.53;4997406;28;20449;-81
2023/06/29 02:33:44;;;;;;;8.20;2.90;;;;;;;14.04;100.00;101107.88;4996957;28;20495;-81
2023/06/29 02:36:10;;;;;;;7.23;3.00;;;;;;;14.01;100.00;101116.66;4997132;28;20540;-80
2023/06/29 02:38:37;;;;;;;7.20;2.87;;;;;;;13.96;100.00;101117.59;4997679;28;20880;-80
2023/06/29 02:41:04;;;;;;;7.33;3.10;;;;;;;14.02;100.00;101113.63;4997407;28;20846;-80
2023/06/29 02:43:30;;;;;;;8.30;3.20;;;;;;;14.03;100.00;101117.13;4997261;28;20521;-80
2023/06/29 02:45:57;;;;;;;8.17;3.90;;;;;;;13.98;100.00;101115.34;4996956;28;20972;-79
2023/06/29 02:48:23;;;;;;;7.77;3.60;;;;;;;13.97;100.00;101110.22;4996370;28;20805;-79
2023/06/29 02:50:52;;;;;;;11.57;3.70;;;;;;;13.94;100.00;101117.09;4996199;28;20499;-79
2023/06/29 02:53:18;;;;;;;10.47;3.43;;;;;;;13.92;100.00;101118.53;4996781;28;20492;-79
2023/06/29 02:55:45;;;;;;;8.30;3.70;;;;;;;13.96;100.00;101116.78;4996283;28;20519;-78
2023/06/29 02:58:12;;;;;;;6.97;3.30;;;;;;;13.91;100.00;101115.00;4999361;28;20887;-79
2023/06/29 03:00:38;;;;;;;7.40;2.93;;;;;;;13.93;100.00;101115.47;4999974;28;20460;-79
2023/06/29 03:03:05;;;;;;;8.27;3.27;;;;;;;13.95;100.00;101126.09;5000522;28;20515;-78
2023/06/29 03:05:31;;;;;;;7.73;3.40;;;;;;;13.93;100.00;101126.38;5000823;28;20471;-80
2023/06/29 03:07:59;;;;;;;7.57;3.50;;;;;;;13.96;100.00;101131.22;5001850;28;21014;-79
2023/06/29 03:10:26;;;;;;;8.83;3.20;;;;;;;14.04;100.00;101124.22;5001177;28;20504;-79
2023/06/29 03:12:53;;;;;;;8.83;3.13;;;;;;;14.03;100.00;101125.31;4999929;28;20867;-79
2023/06/29 03:15:19;;;;;;;8.00;3.50;;;;;;;13.99;100.00;101125.16;4999835;28;20567;-78
2023/06/29 03:17:46;;;;;;;7.27;3.30;;;;;;;14.07;100.00;101126.31;4997692;28;20867;-78
2023/06/29 03:20:13;;;;;;;10.03;3.73;;;;;;;14.05;100.00;101123.91;4997405;28;20487;-78
2023/06/29 03:22:40;;;;;;;7.00;3.23;;;;;;;14.07;100.00;101123.56;4997104;28;20503;-78
2023/06/29 03:25:09;;;;;;;8.67;3.97;;;;;;;14.06;100.00;101121.97;4997244;28;20469;-78
2023/06/29 03:27:36;;;;;;;8.07;3.33;;;;;;;14.05;100.00;101125.81;4997239;28;20524;-78
2023/06/29 03:30:04;;;;;;;8.90;3.43;;;;;;;14.01;100.00;101122.09;4997260;28;20510;-78
2023/06/29 03:32:30;;;;;;;9.13;2.80;;;;;;;14.14;100.00;101132.13;4997713;28;20496;-78
2023/06/29 03:34:57;;;;;;;7.03;2.97;;;;;;;14.24;100.00;101131.06;4999862;28;20496;-79
2023/06/29 03:37:24;;;;;;;8.63;3.40;;;;;;;14.28;100.00;101135.56;5000208;28;20481;-79
2023/06/29 03:39:50;;;;;;;7.87;3.27;;;;;;;14.45;100.00;101125.88;5000765;28;20516;-79
2023/06/29 03:42:18;;;;;;;9.30;4.03;;;;;;;14.58;100.00;101120.34;4999705;28;20540;-78
2023/06/29 03:44:45;;;;;;;7.17;2.97;;;;;;;14.67;100.00;101120.38;4999092;28;20484;-79
2023/06/29 03:47:11;;;;;;;7.90;3.37;;;;;;;14.73;100.00;101118.31;5000077;28;20527;-79
2023/06/29 03:49:38;;;;;;;7.23;3.23;;;;;;;14.80;100.00;101115.94;4998890;28;20536;-77
2023/06/29 03:52:06;;;;;;;7.90;3.80;;;;;;;14.91;100.00;101128.16;4996853;28;20449;-77
2023/06/29 03:54:32;;;;;;;7.20;3.27;;;;;;;15.04;100.00;101120.97;4996520;28;20932;-78
2023/06/29 03:56:59;;;;;;;8.63;3.70;;;;;;;15.14;100.00;101116.03;4996665;28;20539;-78
2023/06/29 03:59:27;;;;;;;7.40;2.93;;;;;;;15.23;100.00;101118.78;4996684;28;20503;-78
2023/06/29 04:01:54;;;;;;;7.20;3.00;;;;;;;15.29;100.00;101122.94;4997591;28;20456;-79
2023/06/29 04:04:21;;;;;;;9.30;3.40;;;;;;;15.35;100.00;101127.13;4998826;28;20441;-79
2023/06/29 04:06:47;;;;;;;8.60;2.93;;;;;;;15.24;100.00;101136.75;5000295;28;20473;-79
2023/06/29 04:09:14;;;;;;;7.40;3.00;;;;;;;15.24;100.00;101134.03;4999831;28;20480;-79
2023/06/29 04:11:40;;;;;;;9.83;3.77;;;;;;;15.24;100.00;101128.56;5000012;28;20479;-79
2023/06/29 04:14:07;;;;;;;7.40;3.33;;;;;;;15.31;100.00;101131.59;4999767;28;20572;-79
2023/06/29 04:16:35;;;;;;;10.23;4.33;;;;;;;15.43;100.00;101130.97;4999481;28;20465;-79
2023/06/29 04:19:02;;;;;;;8.70;3.50;;;;;;;15.54;100.00;101132.28;4998993;28;20485;-79
2023/06/29 04:21:28;;;;;;;7.40;3.40;;;;;;;15.66;100.00;101142.59;4999395;28;20441;-79
2023/06/29 04:23:55;;;;;;;8.53;3.50;;;;;;;15.76;100.00;101136.81;4999151;28;20473;-79
2023/06/29 04:26:22;;;;;;;7.87;3.53;;;;;;;15.89;100.00;101135.84;4999624;28;21043;-80
2023/06/29 04:28:49;;;;;;;11.97;4.13;;;;;;;16.00;100.00;101128.09;4999890;28;20459;-79
2023/06/29 04:31:16;;;;;;;9.00;3.50;;;;;;;16.11;100.00;101136.75;4999374;28;20452;-81
2023/06/29 04:33:44;;;;;;;7.53;3.27;;;;;;;16.26;100.00;101136.25;4999545;28;20829;-79
2023/06/29 04:36:13;;;;;;;7.83;3.30;;;;;;;16.43;100.00;101124.47;4996947;28;20489;-79
2023/06/29 04:38:40;;;;;;;10.17;3.50;;;;;;;16.58;100.00;101123.09;4996555;28;20476;-78
2023/06/29 04:41:07;;;;;;;10.33;3.80;;;;;;;16.69;100.00;101118.88;4996486;28;20484;-78
2023/06/29 04:43:36;;;;;;;17.33;4.00;;;;;;;16.80;100.00;101120.13;4996424;28;20453;-79
2023/06/29 04:46:03;;;;;;;9.23;3.47;;;;;;;16.87;100.00;101114.97;4996384;28;20981;-78
2023/06/29 04:48:32;;;;;;;7.10;3.50;;;;;;;16.96;100.00;101117.66;4996249;28;20495;-78
2023/06/29 04:51:04;;;;;;;11.20;5.00;;;;;;;17.06;100.00;101116.47;4997966;28;20460;-79
2023/06/29 04:53:31;;;;;;;7.57;3.40;;;;;;;17.15;100.00;101114.47;4998649;28;20441;-79
2023/06/29 04:55:58;;;;;;;7.27;2.50;;;;;;;17.21;98.99;101118.59;4996818;28;20496;-78
2023/06/29 04:58:25;;;;;;;7.00;2.93;;;;;;;17.24;99.05;101119.88;4996754;28;20444;-79
2023/06/29 05:00:52;;;;;;;9.53;3.17;;;;;;;17.30;99.18;101118.53;4996613;28;20932;-78
2023/06/29 05:03:18;;;;;;;9.20;3.30;;;;;;;17.35;98.56;101118.34;4996526;28;20871;-78
2023/06/29 05:05:45;;;;;;;7.73;2.97;;;;;;;17.47;98.30;101115.66;4995885;28;20461;-77
2023/06/29 05:08:13;;;;;;;6.97;2.73;;;;;;;17.56;97.76;101119.13;4996399;28;20495;-78
2023/06/29 05:10:40;;;;;;;7.33;2.80;;;;;;;17.65;97.66;101117.13;4996813;28;20453;-79
2023/06/29 05:13:07;;;;;;;8.40;2.67;;;;;;;17.77;97.73;101123.84;4996767;28;20544;-79
2023/06/29 05:15:33;;;;;;;6.93;2.70;;;;;;;17.93;97.34;101124.00;4996535;28;20553;-79
2023/06/29 05:18:00;;;;;;;6.57;2.43;;;;;;;18.01;96.97;101117.63;4996261;28;20791;-78
2023/06/29 05:20:27;;;;;;;8.13;3.20;;;;;;;18.09;96.48;101119.47;4995718;28;20484;-78
2023/06/29 05:22:53;;;;;;;7.40;3.33;;;;;;;18.18;95.77;101122.94;4996885;28;20445;-79
2023/06/29 05:25:22;;;;;;;7.00;2.83;;;;;;;18.25;94.35;101122.38;4996055;28;20492;-79
2023/06/29 05:27:48;;;;;;;7.23;3.07;;;;;;;18.34;92.60;101123.09;4996821;28;20531;-79
2023/06/29 05:30:16;;;;;;;8.97;3.00;;;;;;;18.39;91.80;101120.13;4996826;28;20448;-78
2023/06/29 05:32:43;;;;;;;7.53;2.43;;;;;;;18.45;90.87;101118.75;4996647;28;20480;-78
2023/06/29 05:35:09;;;;;;;5.77;2.17;;;;;;;18.47;91.38;101119.22;4995949;28;21063;-79
2023/06/29 05:37:36;;;;;;;5.93;2.27;;;;;;;18.45;92.45;101118.75;4996438;28;20445;-81
2023/06/29 05:40:03;;;;;;;11.03;3.83;;;;;;;18.38;92.14;101119.31;4999976;28;20550;-81
2023/06/29 05:42:31;;;;;;;7.50;2.80;;;;;;;18.37;92.30;101115.00;4999766;28;20492;-80
2023/06/29 05:44:58;;;;;;;6.90;2.83;;;;;;;18.34;92.54;101112.91;4999804;28;20552;-80
2023/06/29 05:47:25;;;;;;;8.83;2.90;;;;;;;18.39;92.68;101109.94;4999924;28;20472;-80
2023/06/29 05:49:52;;;;;;;7.90;2.93;;;;;;;18.43;91.92;101109.28;4999732;28;20460;-81
2023/06/29 05:52:18;;;;;;;5.33;1.87;;;;;;;18.42;91.51;101119.44;4998894;28;20444;-80
2023/06/29 05:54:45;;;;;;;6.17;2.20;;;;;;;18.46;91.29;101117.63;4998806;28;20535;-79
2023/06/29 05:57:12;;;;;;;6.10;2.40;;;;;;;18.49;92.01;101105.94;5000711;28;20473;-80
2023/06/29 05:59:40;;;;;;;6.70;2.57;;;;;;;18.73;91.61;101109.91;5001080;28;20449;-79
2023/06/29 06:02:06;;;;;;;6.50;2.13;;;;;;;18.98;89.92;101108.72;4997489;28;20499;-80
2023/06/29 06:04:34;;;;;;;9.13;2.80;;;;;;;19.27;88.72;101118.63;4997709;28;20496;-80
2023/06/29 06:07:00;;;;;;;6.27;2.50;;;;;;;19.51;88.93;101115.00;4997182;28;20452;-81
2023/06/29 06:09:27;;;;;;;7.30;3.03;;;;;;;19.70;87.87;101122.66;4997415;28;20452;-80
2023/06/29 06:11:55;;;;;;;6.00;1.80;;;;;;;19.88;87.44;101125.91;4996358;28;20456;-81
2023/06/29 06:14:21;;;;;;;5.20;1.60;;;;;;;20.04;86.93;101120.44;4997412;28;20451;-80
2023/06/29 06:16:49;;;;;;;5.60;1.80;;;;;;;20.15;86.40;101124.28;4997394;28;20520;-80
2023/06/29 06:19:16;;;;;;;7.77;2.20;;;;;;;20.23;85.67;101126.06;4997564;28;20551;-80
2023/06/29 06:21:42;;;;;;;6.20;2.30;;;;;;;20.25;85.05;101132.00;4996873;28;20531;-80
2023/06/29 06:24:09;;;;;;;8.20;1.90;;;;;;;20.40;84.36;101122.16;4997877;28;20445;-79
2023/06/29 06:26:36;;;;;;;5.90;1.73;;;;;;;20.50;82.77;101126.38;4997102;28;20468;-79
2023/06/29 06:29:02;;;;;;;7.40;2.13;;;;;;;20.56;82.41;101125.75;4998330;28;20457;-80
2023/06/29 06:31:29;;;;;;;6.83;2.10;;;;;;;20.61;82.58;101119.19;4998155;28;20476;-79
2023/06/29 06:33:57;;;;;;;8.70;2.10;;;;;;;20.62;82.07;101121.56;5001675;28;20484;-80
2023/06/29 06:36:24;;;;;;;6.30;2.27;;;;;;;20.62;79.66;101126.28;5001783;28;20492;-79
2023/06/29 06:38:51;;;;;;;5.03;1.57;;;;;;;20.64;79.90;101113.75;5002105;28;20511;-79
2023/06/29 06:41:17;;;;;;;6.50;2.13;;;;;;;20.69;79.71;101114.66;5002660;28;20455;-79
2023/06/29 06:43:44;;;;;;;7.03;2.33;;;;;;;20.69;80.43;101112.69;5002136;28;20535;-79
2023/06/29 06:46:10;;;;;;;6.43;1.97;;;;;;;20.77;80.16;101119.19;5001645;28;20512;-80
2023/06/29 06:48:37;;;;;;;5.57;1.73;;;;;;;20.81;79.28;101118.09;5001986;28;20472;-78
2023/06/29 06:51:05;;;;;;;6.10;1.70;;;;;;;20.80;80.03;101112.94;5001434;28;20541;-79
2023/06/29 06:53:32;;;;;;;5.57;1.73;;;;;;;20.86;81.15;101112.31;5001232;28;20539;-79
2023/06/29 06:55:58;;;;;;;5.30;1.80;;;;;;;20.92;81.49;101116.38;5000331;28;20524;-79
2023/06/29 06:58:25;;;;;;;5.10;1.53;;;;;;;20.96;81.85;101121.97;5000546;28;20508;-78
2023/06/29 07:00:52;;;;;;;7.20;2.73;;;;;;;20.97;79.43;101122.78;5000216;28;20448;-77
2023/06/29 07:03:19;;;;;;;5.57;1.93;;;;;;;20.92;78.87;101121.09;4999814;28;20532;-79
2023/06/29 07:05:46;;;;;;;5.87;1.90;;;;;;;20.85;79.07;101121.75;5002211;28;20468;-79
2023/06/29 07:08:14;;;;;;;4.97;1.40;;;;;;;20.91;79.00;101116.75;5001670;28;20952;-80
2023/06/29 07:10:41;;;;;;;7.53;2.27;;;;;;;20.93;80.07;101122.69;5000794;28;20444;-79
2023/06/29 07:13:07;;;;;;;5.60;1.80;;;;;;;20.99;80.33;101121.28;5001315;28;20480;-80
2023/06/29 07:15:34;;;;;;;6.40;1.83;;;;;;;21.10;79.94;101118.75;5002874;28;20484;-79
2023/06/29 07:18:01;;;;;;;5.37;1.70;;;;;;;21.16;80.36;101118.13;5005438;28;20487;-80
2023/06/29 07:20:27;;;;;;;6.07;1.93;;;;;;;21.27;80.28;101121.09;5007181;28;20508;-79
2023/06/29 07:22:54;;;;;;;9.70;1.67;;;;;;;;;;5006387;28;20449;-81
2023/06/29 07:25:22;;;;;;;6.90;2.10;;;;;;;21.39;79.19;101121.00;5002167;28;20568;-79
2023/06/29 07:27:49;;;;;;;5.73;1.87;;;;;;;21.43;78.25;101115.56;5000476;28;20483;-79
2023/06/29 07:30:16;;;;;;;7.30;2.27;;;;;;;21.47;79.45;101108.19;5000458;28;20448;-80
2023/06/29 07:32:43;;;;;;;6.50;1.80;;;;;;;21.49;80.17;101113.31;4999304;28;21024;-80
2023/06/29 07:35:10;;;;;;;5.20;1.57;;;;;;;21.56;78.35;101103.25;4999219;28;20491;-79
2023/06/29 07:37:36;;;;;;;5.53;1.93;;;;;;;21.60;76.29;101104.13;4998825;28;20532;-78
2023/06/29 07:40:05;;;;;;;12.60;2.10;;;;;;;21.64;76.18;101107.72;4998039;28;20449;-78
2023/06/29 07:42:33;;;;;;;6.10;1.70;;;;;;;21.72;76.30;101105.09;4997400;28;20448;-78
2023/06/29 07:44:59;;;;;;;4.87;1.43;;;;;;;21.66;77.19;101108.16;4996737;28;20496;-77
2023/06/29 07:47:26;;;;;;;6.20;1.50;;;;;;;21.69;76.99;101105.81;5005393;23;20540;-77
2023/06/29 07:49:53;;;;;;;5.27;1.57;;;;;;;21.75;75.00;101112.66;4996541;28;20527;-77
2023/06/29 07:52:19;;;;;;;5.40;1.67;;;;;;;21.80;75.23;101101.34;4996641;28;20555;-77
2023/06/29 07:54:46;;;;;;;4.60;1.20;;;;;;;21.83;72.41;101103.38;4996176;28;20444;-77
2023/06/29 07:57:13;;;;;;;11.30;1.73;;;;;;;21.76;72.10;101104.00;4996574;28;20524;-77
2023/06/29 07:59:41;;;;;;;5.00;1.50;;;;;;;21.75;72.91;101102.44;4996392;28;20465;-77
2023/06/29 08:02:08;;;;;;;5.23;1.50;;;;;;;21.86;72.60;101108.94;4996667;28;20449;-77
2023/06/29 08:04:35;;;;;;;4.97;1.47;;;;;;;21.95;72.38;101107.91;4996264;28;20910;-77
2023/06/29 08:07:01;;;;;;;6.57;1.80;;;;;;;22.08;71.57;101112.09;4996328;28;20537;-77
2023/06/29 08:09:28;;;;;;;6.77;1.53;;;;;;;22.13;72.33;101104.38;4995874;28;20539;-77
2023/06/29 08:11:54;;;;;;;5.23;1.43;;;;;;;22.27;73.02;101114.84;4996609;28;20448;-77
2023/06/29 08:14:21;;;;;;;6.37;1.43;;;;;;;22.38;73.01;101113.06;5000707;28;20537;-79
2023/06/29 08:16:49;;;;;;;8.43;1.90;;;;;;;22.41;72.32;101112.34;4999878;28;20921;-80
2023/06/29 08:19:16;;;;;;;6.43;2.30;;;;;;;22.42;71.21;101110.38;4998318;28;20469;-79
2023/06/29 08:21:42;;;;;;;6.20;2.20;;;;;;;22.42;68.82;101110.38;4998767;28;20486;-78
2023/06/29 08:24:09;;;;;;;7.10;2.03;;;;;;;22.38;68.62;101102.00;4998426;28;20448;-79
2023/06/29 08:26:36;;;;;;;6.93;1.63;;;;;;;22.41;67.45;101100.50;4998959;28;20477;-78
2023/06/29 08:29:02;;;;;;;4.90;1.70;;;;;;;22.46;66.59;101099.38;4997879;28;20468;-78
2023/06/29 08:31:29;;;;;;;5.57;1.90;;;;;;;22.32;66.87;101111.00;4997510;28;20531;-78
2023/06/29 08:33:57;;;;;;;5.53;1.90;;;;;;;22.36;68.92;101101.59;4996425;28;20429;-78
2023/06/29 08:36:23;;;;;;;5.17;1.33;;;;;;;22.44;68.01;101104.47;4996622;28;20852;-78
2023/06/29 08:38:50;;;;;;;5.40;1.80;;;;;;;22.44;68.78;101101.69;4997601;28;20551;-78
2023/06/29 08:41:17;;;;;;;5.33;1.90;;;;;;;22.47;69.91;101101.75;4998389;28;20469;-79
2023/06/29 08:43:43;;;;;;;5.23;1.40;;;;;;;22.43;70.99;101098.16;4997413;28;20449;-78
2023/06/29 08:46:10;;;;;;;5.27;1.67;;;;;;;22.39;69.18;101106.38;4997073;28;20539;-79
2023/06/29 08:48:40;;;;;;;5.97;1.83;;;;;;;22.36;69.38;101101.59;4998918;28;20487;-78
2023/06/29 08:51:10;;;;;;;11.13;1.70;;;;;;;22.24;69.53;101104.53;4998736;28;20441;-78
2023/06/29 08:53:37;;;;;;;6.90;1.90;;;;;;;22.28;68.95;101096.31;4998255;28;20951;-78
2023/06/29 08:56:04;;;;;;;4.83;1.63;;;;;;;22.44;70.35;101098.94;4997299;28;20495;-79
2023/06/29 08:58:32;;;;;;;5.10;1.80;;;;;;;22.58;69.20;101102.75;4998516;28;20551;-78
2023/06/29 09:00:58;;;;;;;5.77;1.80;;;;;;;22.69;68.37;101102.13;4997029;28;20453;-78
2023/06/29 09:03:26;;;;;;;5.07;1.60;;;;;;;22.80;66.78;101105.81;4995759;28;20453;-78
2023/06/29 09:05:55;;;;;;;6.23;1.83;;;;;;;22.71;67.44;101097.00;4995725;28;20851;-78
2023/06/29 09:08:24;;;;;;;5.33;1.57;;;;;;;22.72;67.69;101096.66;4995268;28;20890;-78
2023/06/29 09:10:51;;;;;;;7.40;1.57;;;;;;;22.73;66.56;101095.47;4995835;28;20448;-78
2023/06/29 09:13:18;;;;;;;5.70;2.20;;;;;;;22.71;64.91;101102.53;4997169;28;20480;-79
2023/06/29 09:15:46;;;;;;;6.63;1.83;;;;;;;22.72;65.24;101102.19;4997954;28;20485;-78
2023/06/29 09:18:13;;;;;;;5.67;1.90;;;;;;;22.73;65.00;101102.97;4996947;28;20473;-78
2023/06/29 09:21:01;;;;;;;5.60;1.87;;;;;;;22.78;64.32;101091.59;4997404;28;20920;-78
2023/06/29 09:23:30;;;;;;;5.77;1.63;;;;;;;22.88;64.60;101094.50;4997990;28;20456;-79
2023/06/29 09:25:57;;;;;;;6.80;1.87;;;;;;;23.00;63.34;101082.47;5000444;28;20495;-79
2023/06/29 09:28:25;;;;;;;5.37;1.60;;;;;;;23.15;63.59;101086.22;4997662;28;20497;-79
2023/06/29 09:30:52;;;;;;;5.00;1.40;;;;;;;23.28;65.03;101093.09;4995779;28;20503;-78
2023/06/29 09:33:20;;;;;;;5.00;1.30;;;;;;;23.45;65.28;101085.44;4996194;28;20532;-78
2023/06/29 09:35:47;;;;;;;6.83;1.80;;;;;;;23.53;62.96;101089.88;4997843;28;20441;-79
2023/06/29 09:38:15;;;;;;;5.93;1.87;;;;;;;23.50;62.64;101091.41;5001155;28;20576;-78
2023/06/29 09:40:52;;;;;;;8.63;1.67;;;;;;;23.58;64.22;101092.31;5000348;28;20445;-79
2023/06/29 09:43:20;;;;;;;5.77;1.97;;;;;;;23.49;62.87;101092.59;4998909;28;20464;-78
2023/06/29 09:45:47;;;;;;;5.57;1.43;;;;;;;23.65;64.71;101090.44;5000352;28;20468;-78
2023/06/29 09:48:14;;;;;;;6.20;1.80;;;;;;;23.82;63.66;101080.75;4998806;28;20511;-79
2023/06/29 09:50:48;;;;;;;4.97;1.47;;;;;;;23.85;61.24;101079.97;4999107;28;20453;-78
2023/06/29 09:53:15;;;;;;;5.77;1.77;;;;;;;23.77;61.31;101083.03;5000623;28;20464;-79
2023/06/29 09:55:43;;;;;;;4.90;1.40;;;;;;;23.83;61.24;101076.00;4999125;28;20480;-79
2023/06/29 09:58:13;;;;;;;5.03;1.40;;;;;;;24.15;61.61;101073.56;4998933;28;20516;-78
2023/06/29 10:00:41;;;;;;;4.40;1.20;;;;;;;24.42;63.13;101080.53;4996938;28;21028;-79
2023/06/29 10:03:08;;;;;;;5.63;1.77;;;;;;;24.66;63.13;101076.38;5003073;28;20437;-79
2023/06/29 10:05:35;;;;;;;5.90;1.93;;;;;;;24.84;58.32;101079.25;4997963;28;20524;-78
2023/06/29 10:08:07;;;;;;;5.17;1.73;;;;;;;25.01;59.85;101076.97;4998752;28;20468;-79
2023/06/29 10:10:36;;;;;;;5.60;1.87;;;;;;;25.03;59.16;101074.63;4997177;28;20442;-79
2023/06/29 10:13:07;;;;;;;6.50;1.83;;;;;;;25.15;57.28;101074.31;4997201;28;20445;-79
2023/06/29 10:15:37;;;;;;;4.93;1.63;;;;;;;25.05;56.45;101064.72;4999717;28;20472;-79
2023/06/29 10:18:10;;;;;;;5.63;1.73;;;;;;;25.05;56.66;101066.69;4998770;28;20922;-78
2023/06/29 10:20:41;;;;;;;6.83;2.07;;;;;;;25.02;56.98;101062.75;4999823;28;20508;-80
2023/06/29 10:23:09;;;;;;;4.57;1.10;;;;;;;25.20;56.99;101060.06;4998566;28;20433;-78
2023/06/29 10:25:42;;;;;;;4.70;1.40;;;;;;;25.36;55.39;101060.53;5002433;28;20449;-81
2023/06/29 10:28:13;;;;;;;4.53;1.30;;;;;;;25.38;54.22;101052.63;4997362;28;20989;-82
2023/06/29 10:30:49;;;;;;;6.93;1.57;;;;;;;25.42;55.13;101058.19;5002149;28;20420;-79
2023/06/29 10:33:21;;;;;;;6.03;1.67;;;;;;;25.30;55.43;101056.53;5001352;28;20817;-79
2023/06/29 10:35:55;;;;;;;4.83;1.53;;;;;;;25.09;54.34;101048.13;4999618;28;20425;-79
2023/06/29 10:38:27;;;;;;;6.17;1.97;;;;;;;24.95;56.63;101051.59;4997297;28;20527;-79
2023/06/29 10:40:54;;;;;;;5.60;2.13;;;;;;;24.82;57.63;101042.81;5001278;28;20461;-79
2023/06/29 10:43:20;;;;;;;6.67;2.53;;;;;;;24.94;58.88;101049.22;5000025;28;20783;-80
2023/06/29 10:45:48;;;;;;;9.40;2.40;;;;;;;25.02;57.49;101043.31;5001635;28;20445;-79
2023/06/29 10:48:18;;;;;;;9.90;1.80;;;;;;;25.14;58.47;101042.22;5002339;28;20521;-79
2023/06/29 10:50:47;;;;;;;5.63;1.90;;;;;;;25.22;58.73;101041.06;4997781;28;20453;-79
2023/06/29 10:53:15;;;;;;;5.30;1.70;;;;;;;25.30;57.52;101044.66;4997040;28;20453;-79
2023/06/29 10:55:44;;;;;;;5.77;2.27;;;;;;;25.33;56.32;101038.34;5003114;28;20484;-79
2023/06/29 10:58:18;;;;;;;4.40;1.30;;;;;;;25.24;56.25;101035.94;5003437;28;20508;-78
2023/06/29 11:00:44;;;;;;;4.90;1.77;;;;;;;25.15;56.91;101033.53;5002293;28;20587;-79
2023/06/29 11:03:13;;;;;;;5.97;2.07;;;;;;;25.19;57.79;101027.19;4995511;28;20441;-78
2023/06/29 11:05:50;;;;;;;5.80;2.27;;;;;;;25.01;59.05;101021.53;5000436;28;20477;-79
2023/06/29 11:08:17;;;;;;;5.60;1.60;;;;;;;25.09;59.92;101025.94;5001637;28;20469;-79
2023/06/29 11:10:45;;;;;;;5.33;1.90;;;;;;;25.19;58.66;101022.44;5000016;28;20468;-78
2023/06/29 11:13:13;;;;;;;6.13;2.10;;;;;;;25.53;56.80;101027.69;5001799;28;20511;-78
2023/06/29 11:15:40;;;;;;;5.90;2.00;;;;;;;25.97;56.26;101023.81;4998734;28;20846;-79
2023/06/29 11:18:13;;;;;;;5.40;1.90;;;;;;;26.26;53.31;101030.19;4998403;28;21135;-79
2023/06/29 11:20:44;;;;;;;6.33;2.13;;;;;;;26.05;50.98;101028.19;5002191;28;20480;-79
2023/06/29 11:34:22;;;;;;;5.53;2.00;;;;;;;27.24;54.19;101013.69;4919274;29;20956;-79
2023/06/29 11:37:16;;;;;;;;;;;;;;;;;;;;;